Time;durP1;ratioP1;P1;durP2;ratioP2;P2;SDS_P1;SDS_P2;PMS_P1;PMS_P2;Temp;Humidity;BMP_temperature;BMP_pressure;BME280_temperature;BME280_humidity;BME280_pressure;Samples;Min_cycle;Max_cycle;Signal;HPM_P1;HPM_P2
2022/08/01 00:01:30;;;;;;;1.10;1.03;;;20.20;99.90;;;;;;4999859;28;20169;-70
2022/08/01 00:03:56;;;;;;;3.90;2.17;;;20.10;99.90;;;;;;4999574;28;20192;-70
2022/08/01 00:06:22;;;;;;;1.87;1.10;;;20.10;99.90;;;;;;4999301;28;20170;-70
2022/08/01 00:08:47;;;;;;;1.97;1.10;;;20.20;99.90;;;;;;5014660;28;20472;-72
2022/08/01 00:11:13;;;;;;;1.27;1.17;;;20.20;99.90;;;;;;4999441;28;20181;-70
2022/08/01 00:13:39;;;;;;;1.57;1.07;;;20.10;99.90;;;;;;5014477;28;20170;-70
2022/08/01 00:16:05;;;;;;;5.13;1.80;;;20.10;99.90;;;;;;4999045;28;20185;-70
2022/08/01 00:18:31;;;;;;;2.87;2.13;;;20.00;99.90;;;;;;4999204;28;20220;-72
2022/08/01 00:20:57;;;;;;;4.17;2.33;;;20.20;99.90;;;;;;4999128;28;20589;-70
2022/08/01 00:23:23;;;;;;;1.97;1.87;;;20.20;99.90;;;;;;4999185;28;20469;-70
2022/08/01 00:25:49;;;;;;;5.27;1.80;;;20.20;99.90;;;;;;4999150;28;20577;-70
2022/08/01 00:28:16;;;;;;;2.73;1.30;;;20.30;99.90;;;;;;4999125;28;20174;-69
2022/08/01 00:30:41;;;;;;;3.40;2.67;;;20.30;99.90;;;;;;4999001;28;20228;-71
2022/08/01 00:33:07;;;;;;;2.37;2.10;;;20.40;99.90;;;;;;4999183;28;20174;-70
2022/08/01 00:35:33;;;;;;;4.17;2.53;;;20.30;99.90;;;;;;4998711;28;20620;-71
2022/08/01 00:37:59;;;;;;;6.77;2.90;;;20.10;99.90;;;;;;4998979;28;20205;-69
2022/08/01 00:40:25;;;;;;;4.40;2.30;;;19.70;99.90;;;;;;4998877;28;20170;-69
2022/08/01 00:42:50;;;;;;;7.13;2.70;;;19.40;99.90;;;;;;4998927;28;20636;-70
2022/08/01 00:45:16;;;;;;;5.70;2.47;;;19.50;99.90;;;;;;4999249;28;20174;-69
2022/08/01 00:47:42;;;;;;;2.53;2.20;;;18.90;99.90;;;;;;4998910;28;20190;-70
2022/08/01 00:50:08;;;;;;;2.63;2.43;;;-7.80;99.90;;;;;;4998430;28;20173;-71
2022/08/01 00:52:35;;;;;;;5.63;3.03;;;-5.20;99.90;;;;;;4997611;28;20584;-72
2022/08/01 00:55:01;;;;;;;4.27;2.47;;;-4.80;99.90;;;;;;4998608;28;20189;-71
2022/08/01 00:57:28;;;;;;;7.00;3.13;;;-5.10;99.90;;;;;;4998667;28;20601;-70
2022/08/01 00:59:53;;;;;;;5.33;2.33;;;-4.60;99.90;;;;;;4998360;28;20241;-70
2022/08/01 01:02:19;;;;;;;2.97;2.67;;;-4.00;99.90;;;;;;4998575;28;20252;-70
2022/08/01 01:04:45;;;;;;;4.13;2.40;;;-5.90;99.90;;;;;;4998157;28;20585;-72
2022/08/01 01:07:36;;;;;;;3.00;2.70;;;-5.10;99.90;;;;;;4998650;28;20198;-70
2022/08/01 01:10:23;;;;;;;8.73;3.20;;;-5.30;99.90;;;;;;4998259;28;20224;-71
2022/08/01 01:13:04;;;;;;;4.93;2.73;;;-4.80;99.90;;;;;;4998408;28;20166;-70
2022/08/01 01:15:36;;;;;;;5.87;2.60;;;-6.30;99.90;;;;;;4998358;28;20240;-73
2022/08/01 01:18:20;;;;;;;3.33;2.37;;;20.70;99.90;;;;;;4998173;28;20205;-70
2022/08/01 01:21:00;;;;;;;2.63;2.40;;;20.50;99.90;;;;;;4997746;28;20182;-71
2022/08/01 01:23:50;;;;;;;6.27;2.70;;;20.40;99.90;;;;;;5013423;28;20170;-69
2022/08/01 01:26:45;;;;;;;3.17;2.37;;;20.40;99.90;;;;;;4997941;28;20245;-69
2022/08/01 01:29:38;;;;;;;2.23;2.03;;;20.30;99.90;;;;;;4998024;28;20170;-69
2022/08/01 01:32:19;;;;;;;3.27;2.90;;;20.20;99.90;;;;;;4997988;28;20189;-70
2022/08/01 01:34:49;;;;;;;3.17;1.97;;;20.20;99.90;;;;;;4997546;28;20253;-72
2022/08/01 01:37:18;;;;;;;7.07;2.90;;;20.30;99.90;;;;;;4997913;28;20222;-70
2022/08/01 01:39:48;;;;;;;2.43;2.23;;;20.40;99.90;;;;;;4997879;28;20162;-70
2022/08/01 01:42:16;;;;;;;6.57;3.43;;;20.30;99.90;;;;;;4997575;28;20633;-70
2022/08/01 01:44:43;;;;;;;3.97;2.90;;;20.20;99.90;;;;;;4997679;28;20178;-70
2022/08/01 01:47:10;;;;;;;4.20;2.83;;;20.30;99.90;;;;;;4997649;28;20257;-69
2022/08/01 01:49:38;;;;;;;2.67;2.47;;;20.40;99.90;;;;;;5012722;28;20174;-70
2022/08/01 01:52:04;;;;;;;5.43;3.23;;;20.30;99.90;;;;;;4997449;28;20178;-68
2022/08/01 01:54:45;;;;;;;3.10;2.73;;;20.30;99.90;;;;;;4997594;28;20205;-69
2022/08/01 01:57:12;;;;;;;3.67;2.83;;;20.30;99.90;;;;;;4997346;28;20185;-69
2022/08/01 01:59:40;;;;;;;6.90;4.93;;;20.30;99.90;;;;;;4997532;28;20171;-70
2022/08/01 02:02:09;;;;;;;7.63;5.10;;;20.10;99.90;;;;;;4997339;28;20174;-71
2022/08/01 02:04:42;;;;;;;8.77;6.10;;;20.00;99.90;;;;;;5012480;28;20175;-71
2022/08/01 02:07:12;;;;;;;12.60;6.93;;;19.90;99.90;;;;;;4997402;28;20485;-71
2022/08/01 02:09:41;;;;;;;10.43;6.70;;;19.50;99.90;;;;;;4997359;28;20185;-71
2022/08/01 02:12:11;;;;;;;9.63;6.87;;;19.40;99.90;;;;;;4997081;28;20657;-71
2022/08/01 02:14:39;;;;;;;12.37;7.10;;;19.40;99.90;;;;;;5012195;28;20201;-72
2022/08/01 02:17:05;;;;;;;10.70;7.07;;;19.30;99.90;;;;;;5011938;28;20272;-70
2022/08/01 02:19:33;;;;;;;13.03;7.17;;;19.40;99.90;;;;;;4997158;28;20249;-69
2022/08/01 02:22:07;;;;;;;11.07;8.27;;;19.40;99.90;;;;;;4997149;28;20181;-70
2022/08/01 02:25:01;;;;;;;12.30;6.63;;;19.30;99.90;;;;;;4997083;28;20166;-69
2022/08/01 02:28:00;;;;;;;13.03;7.80;;;19.10;99.90;;;;;;4996933;28;20172;-70
2022/08/01 02:30:31;;;;;;;11.70;6.77;;;19.00;99.90;;;;;;4996874;28;20170;-71
2022/08/01 02:33:09;;;;;;;11.97;8.27;;;19.10;99.90;;;;;;4996743;28;20241;-71
2022/08/01 02:35:40;;;;;;;10.17;6.67;;;19.20;99.90;;;;;;4996847;28;20165;-71
2022/08/01 02:38:10;;;;;;;10.57;6.70;;;19.30;99.90;;;;;;4996694;28;20204;-70
2022/08/01 02:40:40;;;;;;;9.70;7.10;;;19.60;99.90;;;;;;5012649;28;20500;-70
2022/08/01 02:43:09;;;;;;;15.57;8.37;;;19.40;99.90;;;;;;4996652;28;20170;-70
2022/08/01 02:45:37;;;;;;;12.53;9.73;;;19.20;99.90;;;;;;4996527;28;20194;-70
2022/08/01 02:48:14;;;;;;;10.63;9.10;;;-5.80;99.90;;;;;;4996552;28;20608;-69
2022/08/01 02:50:43;;;;;;;15.70;9.27;;;-4.40;99.90;;;;;;4996580;28;20256;-70
2022/08/01 02:53:12;;;;;;;19.80;10.03;;;-4.00;99.90;;;;;;4996434;28;20170;-70
2022/08/01 02:55:42;;;;;;;12.83;8.53;;;-4.60;99.90;;;;;;4996479;28;20609;-70
2022/08/01 02:58:12;;;;;;;18.57;9.27;;;-5.70;99.90;;;;;;4996228;28;20280;-70
2022/08/01 03:00:40;;;;;;;12.00;8.90;;;-4.00;99.90;;;;;;4996217;28;20257;-70
2022/08/01 03:03:07;;;;;;;13.90;9.27;;;-3.70;99.90;;;;;;4996293;28;20234;-70
2022/08/01 03:05:35;;;;;;;12.73;9.17;;;-3.40;99.90;;;;;;4996385;28;20188;-69
2022/08/01 03:08:02;;;;;;;12.90;9.33;;;-2.90;99.90;;;;;;4996380;28;20198;-69
2022/08/01 03:10:30;;;;;;;10.47;7.80;;;-2.90;99.90;;;;;;4996448;28;20573;-69
2022/08/01 03:12:58;;;;;;;13.00;8.77;;;-3.10;99.90;;;;;;4996330;28;20162;-70
2022/08/01 03:15:30;;;;;;;21.43;10.47;;;-2.50;99.90;;;;;;5010469;28;20217;-72
2022/08/01 03:17:59;;;;;;;15.00;8.83;;;-2.10;99.90;;;;;;4995015;28;20205;-70
2022/08/01 03:20:25;;;;;;;17.07;9.33;;;-3.20;99.90;;;;;;4996332;28;20186;-70
2022/08/01 03:22:53;;;;;;;17.30;11.73;;;-2.80;99.90;;;;;;4996209;28;20201;-70
2022/08/01 03:25:21;;;;;;;17.43;10.73;;;-2.30;99.90;;;;;;4996206;28;20236;-70
2022/08/01 03:27:54;;;;;;;11.83;9.17;;;-5.80;99.90;;;;;;5011407;28;20174;-70
2022/08/01 03:30:22;;;;;;;13.57;9.40;;;-5.00;99.90;;;;;;5011118;28;20615;-71
2022/08/01 03:32:48;;;;;;;12.87;10.83;;;-3.30;99.90;;;;;;4996181;28;20169;-71
2022/08/01 03:35:14;;;;;;;13.27;9.27;;;-4.20;99.90;;;;;;5011403;28;20232;-72
2022/08/01 03:37:47;;;;;;;12.40;8.90;;;-1.70;99.90;;;;;;4994903;28;20305;-70
2022/08/01 03:40:22;;;;;;;14.00;9.93;;;-2.50;99.90;;;;;;4995856;28;20645;-72
2022/08/01 03:42:50;;;;;;;17.73;10.23;;;-2.50;99.90;;;;;;4996119;28;20197;-71
2022/08/01 03:45:35;;;;;;;12.17;9.27;;;-2.20;99.90;;;;;;4995904;28;20170;-70
2022/08/01 03:48:05;;;;;;;13.00;9.43;;;-2.90;99.90;;;;;;4995875;28;20202;-71
2022/08/01 03:50:34;;;;;;;13.70;10.17;;;-3.40;99.90;;;;;;4996017;28;20170;-70
2022/08/01 03:53:03;;;;;;;15.90;11.90;;;-2.60;99.90;;;;;;4995837;28;20178;-71
2022/08/01 03:55:31;;;;;;;15.37;11.87;;;-2.70;99.90;;;;;;4996023;28;20170;-70
2022/08/01 03:57:58;;;;;;;15.60;11.23;;;-2.80;99.90;;;;;;4995652;28;20201;-69
2022/08/01 04:00:25;;;;;;;13.60;11.10;;;-2.50;99.90;;;;;;4996022;28;20173;-69
2022/08/01 04:02:51;;;;;;;18.03;11.47;;;-5.10;99.90;;;;;;4995880;28;20256;-72
2022/08/01 04:05:18;;;;;;;13.90;10.33;;;-4.00;99.90;;;;;;4995789;28;20208;-69
2022/08/01 04:08:01;;;;;;;17.63;11.77;;;-5.30;99.90;;;;;;5011287;28;20173;-70
2022/08/01 04:10:28;;;;;;;14.80;10.27;;;-5.70;99.90;;;;;;4995865;28;20252;-70
2022/08/01 04:12:54;;;;;;;12.10;10.13;;;-3.90;99.90;;;;;;4995588;28;20174;-69
2022/08/01 04:15:20;;;;;;;20.80;11.17;;;-4.00;99.90;;;;;;4996753;28;20268;-70
2022/08/01 04:17:47;;;;;;;15.83;10.63;;;-3.20;99.90;;;;;;4996831;28;20237;-71
2022/08/01 04:20:13;;;;;;;18.17;11.93;;;-3.20;99.90;;;;;;4995792;28;20265;-69
2022/08/01 04:22:40;;;;;;;21.63;11.70;;;-4.50;99.90;;;;;;4995778;28;20171;-70
2022/08/01 04:25:21;;;;;;;11.73;9.73;;;-2.50;99.90;;;;;;4995569;28;20159;-70
2022/08/01 04:27:50;;;;;;;19.20;12.27;;;-2.80;99.90;;;;;;4998851;28;20174;-70
2022/08/01 04:30:19;;;;;;;14.30;9.47;;;-2.90;99.90;;;;;;4998997;28;20206;-69
2022/08/01 04:32:46;;;;;;;14.43;10.77;;;-3.30;99.90;;;;;;4999227;28;20573;-72
2022/08/01 04:35:18;;;;;;;12.50;9.37;;;-1.90;99.90;;;;;;4998936;28;20201;-70
2022/08/01 04:37:48;;;;;;;19.43;11.97;;;-1.30;99.90;;;;;;4999020;28;20631;-70
2022/08/01 04:40:15;;;;;;;12.63;9.97;;;-2.80;99.90;;;;;;4998709;28;20249;-70
2022/08/01 04:42:42;;;;;;;13.83;9.93;;;-4.40;99.90;;;;;;4998779;28;20170;-72
2022/08/01 04:45:09;;;;;;;17.83;11.70;;;-4.40;99.90;;;;;;5014176;28;20531;-69
2022/08/01 04:47:37;;;;;;;11.53;9.60;;;-3.20;99.90;;;;;;4998925;28;20178;-71
2022/08/01 04:50:07;;;;;;;18.27;12.40;;;-3.70;99.90;;;;;;4998702;28;20174;-70
2022/08/01 04:52:37;;;;;;;10.93;9.30;;;-3.10;99.90;;;;;;4998664;28;20170;-69
2022/08/01 04:55:05;;;;;;;14.50;9.67;;;-3.10;99.90;;;;;;5013680;28;20236;-69
2022/08/01 04:57:37;;;;;;;10.43;8.30;;;-4.40;99.90;;;;;;4998139;28;20209;-69
2022/08/01 05:00:04;;;;;;;8.70;8.00;;;-3.00;99.90;;;;;;4998466;28;20170;-69
2022/08/01 05:02:30;;;;;;;10.30;8.13;;;-2.80;99.90;;;;;;4998524;28;20258;-70
2022/08/01 05:04:57;;;;;;;9.77;8.80;;;-3.40;99.90;;;;;;4998318;28;20174;-69
2022/08/01 05:07:22;;;;;;;15.63;11.40;;;-2.60;99.90;;;;;;4998449;28;20650;-70
2022/08/01 05:09:48;;;;;;;17.53;11.77;;;-3.10;99.90;;;;;;4998269;28;20206;-69
2022/08/01 05:12:15;;;;;;;16.17;9.97;;;-3.70;99.90;;;;;;5013341;28;20194;-70
2022/08/01 05:14:41;;;;;;;16.27;11.97;;;-3.50;99.90;;;;;;4998116;28;20178;-69
2022/08/01 05:17:08;;;;;;;16.30;11.77;;;-3.00;99.90;;;;;;4998137;28;20206;-70
2022/08/01 05:19:35;;;;;;;16.77;12.03;;;-3.30;99.90;;;;;;4998376;28;20159;-70
2022/08/01 05:22:04;;;;;;;15.57;10.97;;;-3.00;99.90;;;;;;4998200;28;20170;-69
2022/08/01 05:24:31;;;;;;;15.47;11.80;;;-3.30;99.90;;;;;;4997971;28;20262;-70
2022/08/01 05:26:58;;;;;;;14.47;11.20;;;-3.30;99.90;;;;;;5013137;28;20204;-71
2022/08/01 05:29:24;;;;;;;17.17;12.53;;;-2.50;99.90;;;;;;4998075;28;20578;-69
2022/08/01 05:31:50;;;;;;;13.27;11.63;;;-2.80;99.90;;;;;;4997962;28;20186;-69
2022/08/01 05:34:16;;;;;;;18.73;12.33;;;-3.20;99.90;;;;;;4997832;28;20198;-70
2022/08/01 05:36:42;;;;;;;13.13;11.73;;;-2.90;99.90;;;;;;4997773;28;20194;-70
2022/08/01 05:39:08;;;;;;;14.43;12.63;;;-2.50;99.90;;;;;;4997198;28;20166;-70
2022/08/01 05:41:36;;;;;;;16.97;11.97;;;-2.50;99.90;;;;;;4997552;28;20189;-70
2022/08/01 05:44:02;;;;;;;15.57;11.77;;;-2.70;99.90;;;;;;4997608;28;20215;-70
2022/08/01 05:46:27;;;;;;;14.13;11.23;;;-2.00;99.90;;;;;;4997717;28;20186;-69
2022/08/01 05:48:54;;;;;;;20.20;12.80;;;-2.30;99.90;;;;;;4997733;28;20166;-69
2022/08/01 05:51:20;;;;;;;15.67;12.97;;;-2.20;99.90;;;;;;4997661;28;20182;-70
2022/08/01 05:53:47;;;;;;;14.97;12.47;;;-2.30;99.90;;;;;;4997625;28;20586;-69
2022/08/01 05:56:12;;;;;;;13.20;10.50;;;-2.60;99.90;;;;;;4997091;28;20589;-70
2022/08/01 05:58:38;;;;;;;12.17;10.30;;;-2.90;99.90;;;;;;4997621;28;20201;-70
2022/08/01 06:01:04;;;;;;;12.73;10.27;;;-3.30;99.90;;;;;;5012666;28;20597;-70
2022/08/01 06:03:31;;;;;;;10.83;8.70;;;-3.30;99.90;;;;;;5012700;28;20182;-71
2022/08/01 06:05:57;;;;;;;12.63;10.63;;;-2.30;99.90;;;;;;4997188;28;20166;-69
2022/08/01 06:08:23;;;;;;;10.50;9.03;;;-2.90;99.90;;;;;;4997294;28;20261;-70
2022/08/01 06:10:49;;;;;;;11.30;9.60;;;-3.10;99.90;;;;;;4997003;28;20198;-69
2022/08/01 06:13:15;;;;;;;10.47;9.23;;;-3.10;99.90;;;;;;4997290;28;20578;-70
2022/08/01 06:15:40;;;;;;;12.53;8.90;;;-3.80;99.90;;;;;;4996889;28;20194;-70
2022/08/01 06:18:06;;;;;;;10.10;8.73;;;-3.60;99.90;;;;;;4997045;28;20206;-70
2022/08/01 06:20:32;;;;;;;9.90;8.90;;;-5.60;99.90;;;;;;4997284;28;20193;-70
2022/08/01 06:22:58;;;;;;;9.20;8.30;;;-5.80;99.90;;;;;;4996913;28;20578;-70
2022/08/01 06:25:24;;;;;;;11.57;8.47;;;-6.90;99.90;;;;;;4997064;28;20177;-70
2022/08/01 06:27:49;;;;;;;7.60;6.90;;;-6.10;99.90;;;;;;4996968;28;20178;-69
2022/08/01 06:30:15;;;;;;;7.47;6.77;;;-6.40;99.90;;;;;;4996896;28;20249;-69
2022/08/01 06:32:41;;;;;;;8.60;7.33;;;-4.80;99.90;;;;;;4996938;28;20228;-71
2022/08/01 06:35:07;;;;;;;7.80;7.00;;;-5.70;99.90;;;;;;4996836;28;20633;-69
2022/08/01 06:37:33;;;;;;;11.40;7.37;;;-6.40;99.90;;;;;;4996500;28;20201;-69
2022/08/01 06:40:04;;;;;;;8.90;7.07;;;-6.40;99.90;;;;;;4996894;28;20170;-70
2022/08/01 06:42:35;;;;;;;7.83;7.13;;;-7.00;99.90;;;;;;4996783;28;20170;-69
2022/08/01 06:45:05;;;;;;;6.83;6.13;;;-7.90;99.90;;;;;;4996689;28;20166;-69
2022/08/01 06:47:31;;;;;;;7.97;7.37;;;-6.70;99.90;;;;;;4996717;28;20233;-70
2022/08/01 06:49:57;;;;;;;7.07;6.47;;;-5.40;99.90;;;;;;4995961;28;20166;-69
2022/08/01 06:52:23;;;;;;;7.17;6.43;;;-6.70;99.90;;;;;;4996263;28;20232;-70
2022/08/01 06:54:48;;;;;;;6.53;6.03;;;-6.10;99.90;;;;;;5011940;28;20177;-71
2022/08/01 06:57:14;;;;;;;6.80;6.30;;;-7.80;99.90;;;;;;5011759;28;20194;-71
2022/08/01 06:59:40;;;;;;;9.13;6.03;;;-7.70;99.90;;;;;;4996682;28;20267;-70
2022/08/01 07:02:07;;;;;;;5.47;5.07;;;-6.00;99.90;;;;;;4995541;28;20170;-69
2022/08/01 07:04:33;;;;;;;5.57;5.07;;;-6.40;99.90;;;;;;4996444;28;20257;-72
2022/08/01 07:06:59;;;;;;;4.97;4.43;;;-4.90;99.90;;;;;;4996170;28;20197;-70
2022/08/01 07:09:25;;;;;;;5.50;4.40;;;-5.10;99.90;;;;;;4996423;28;20198;-70
2022/08/01 07:11:52;;;;;;;4.10;3.80;;;-6.90;99.90;;;;;;4996502;28;20216;-70
2022/08/01 07:14:18;;;;;;;5.23;4.63;;;-7.50;99.90;;;;;;4995081;28;20194;-70
2022/08/01 07:16:44;;;;;;;7.17;3.87;;;-6.70;99.90;;;;;;4996167;28;20206;-70
2022/08/01 07:19:10;;;;;;;5.07;4.57;;;-7.50;99.90;;;;;;4996142;28;20250;-69
2022/08/01 07:21:36;;;;;;;6.00;4.40;;;-4.80;99.90;;;;;;5011400;28;20182;-70
2022/08/01 07:24:02;;;;;;;7.53;4.53;;;-8.10;99.90;;;;;;4996233;28;20177;-70
2022/08/01 07:26:28;;;;;;;5.80;4.27;;;-4.90;99.90;;;;;;4996231;28;20177;-71
2022/08/01 07:28:53;;;;;;;7.57;4.63;;;-5.20;99.90;;;;;;4996152;28;20172;-70
2022/08/01 07:31:19;;;;;;;4.90;4.50;;;-6.00;99.90;;;;;;4996225;28;20604;-70
2022/08/01 07:33:45;;;;;;;6.93;4.80;;;-8.50;99.90;;;;;;4996049;28;20233;-69
2022/08/01 07:36:11;;;;;;;5.13;4.70;;;-8.80;99.90;;;;;;5011457;28;20168;-71
2022/08/01 07:38:37;;;;;;;5.37;4.87;;;-7.50;99.90;;;;;;4995999;28;20202;-70
2022/08/01 07:41:03;;;;;;;4.27;3.97;;;-6.60;99.90;;;;;;4996033;28;20189;-70
2022/08/01 07:43:29;;;;;;;4.43;4.03;;;21.10;99.90;;;;;;4995764;28;20232;-70
2022/08/01 07:45:55;;;;;;;4.37;3.83;;;21.70;99.90;;;;;;4996161;28;20177;-70
2022/08/01 07:48:23;;;;;;;4.50;3.47;;;21.70;99.90;;;;;;4995791;28;20249;-70
2022/08/01 07:50:50;;;;;;;4.47;2.93;;;21.80;99.90;;;;;;4995814;28;20188;-70
2022/08/01 07:53:16;;;;;;;3.13;2.83;;;21.70;99.90;;;;;;4996003;28;20766;-71
2022/08/01 07:55:42;;;;;;;4.30;4.03;;;21.70;99.90;;;;;;4995930;28;20177;-70
2022/08/01 07:58:08;;;;;;;3.20;3.00;;;21.70;99.90;;;;;;4995725;28;20194;-70
2022/08/01 08:00:33;;;;;;;3.10;2.90;;;21.70;99.90;;;;;;4996181;28;20241;-70
2022/08/01 08:02:59;;;;;;;3.97;2.97;;;21.60;99.90;;;;;;4999599;28;20248;-70
2022/08/01 08:05:29;;;;;;;5.13;4.70;;;21.60;99.90;;;;;;5014557;28;20356;-71
2022/08/01 08:07:55;;;;;;;3.27;2.97;;;21.60;99.90;;;;;;4999607;28;20209;-70
2022/08/01 08:10:21;;;;;;;3.23;2.93;;;21.60;99.90;;;;;;4999292;28;20663;-71
2022/08/01 08:12:48;;;;;;;3.63;3.43;;;21.40;99.90;;;;;;4999596;28;20178;-74
2022/08/01 08:15:14;;;;;;;2.77;2.67;;;21.40;99.90;;;;;;4999377;28;20192;-71
2022/08/01 08:17:40;;;;;;;3.73;3.53;;;21.40;99.90;;;;;;4999199;28;20212;-71
2022/08/01 08:20:07;;;;;;;3.77;3.47;;;21.40;99.90;;;;;;4999122;28;20469;-70
2022/08/01 08:22:33;;;;;;;3.97;3.77;;;21.40;99.90;;;;;;5014542;28;20174;-71
2022/08/01 08:24:59;;;;;;;3.97;3.67;;;20.80;99.90;;;;;;4999448;28;20166;-72
2022/08/01 08:27:25;;;;;;;4.23;3.90;;;-10.60;99.90;;;;;;4999456;28;20178;-71
2022/08/01 08:29:52;;;;;;;9.10;5.43;;;-10.60;99.90;;;;;;4999214;28;20225;-71
2022/08/01 08:32:17;;;;;;;4.47;4.10;;;21.80;99.90;;;;;;5001766;28;20245;-71
2022/08/01 08:34:43;;;;;;;4.93;4.53;;;22.50;99.90;;;;;;5006285;28;20226;-71
2022/08/01 08:37:10;;;;;;;3.47;3.27;;;22.60;99.90;;;;;;5023099;28;20202;-71
2022/08/01 08:39:36;;;;;;;4.30;3.83;;;22.60;99.90;;;;;;4999019;28;20167;-71
2022/08/01 08:42:06;;;;;;;4.47;3.77;;;22.50;99.90;;;;;;5014634;28;20185;-71
2022/08/01 08:44:32;;;;;;;4.57;3.60;;;22.40;99.90;;;;;;4998560;28;20628;-71
2022/08/01 08:47:01;;;;;;;3.53;3.23;;;22.40;99.90;;;;;;4999030;28;20260;-72
2022/08/01 08:49:28;;;;;;;2.17;1.97;;;18.10;99.90;;;;;;4998454;28;20182;-71
2022/08/01 08:51:58;;;;;;;2.23;2.13;;;-26.10;99.90;;;;;;4998721;28;20166;-71
2022/08/01 08:54:25;;;;;;;3.23;1.73;;;-36.40;99.10;;;;;;4998591;28;20180;-71
2022/08/01 08:56:52;;;;;;;1.93;1.80;;;-28.10;99.90;;;;;;4998774;28;20174;-72
2022/08/01 08:59:19;;;;;;;1.30;1.20;;;-27.70;99.90;;;;;;5013988;28;20170;-71
2022/08/01 09:01:44;;;;;;;1.70;1.60;;;-22.10;99.90;;;;;;4998629;28;20181;-72
2022/08/01 09:04:11;;;;;;;2.13;1.97;;;-22.20;99.90;;;;;;4998264;28;20178;-71
2022/08/01 09:06:37;;;;;;;2.53;1.47;;;-23.20;99.90;;;;;;4998360;28;20224;-71
2022/08/01 09:09:04;;;;;;;2.13;1.17;;;-27.60;99.90;;;;;;4998463;28;20174;-72
2022/08/01 09:11:30;;;;;;;1.63;1.43;;;-30.30;99.60;;;;;;4998504;28;20198;-72
2022/08/01 09:14:10;;;;;;;1.30;1.30;;;-27.50;99.90;;;;;;4997568;28;20170;-71
2022/08/01 09:16:39;;;;;;;1.33;1.27;;;-28.40;99.10;;;;;;5013407;28;20245;-70
2022/08/01 09:19:19;;;;;;;1.83;1.43;;;-38.10;94.50;;;;;;4998086;28;20202;-72
2022/08/01 09:21:56;;;;;;;1.20;1.10;;;-40.00;93.90;;;;;;4998212;28;20224;-72
2022/08/01 09:24:22;;;;;;;4.20;2.13;;;-40.00;93.00;;;;;;4998244;28;20169;-71
2022/08/01 09:26:49;;;;;;;1.60;1.50;;;-40.00;92.20;;;;;;4998139;28;20573;-70
2022/08/01 09:29:27;;;;;;;1.87;1.47;;;-40.00;93.30;;;;;;4998043;28;20471;-72
2022/08/01 09:31:53;;;;;;;1.70;1.60;;;-40.00;92.90;;;;;;4997774;28;20170;-72
2022/08/01 09:34:28;;;;;;;1.60;1.50;;;-40.00;93.30;;;;;;4997972;28;20166;-71
2022/08/01 09:36:56;;;;;;;1.87;1.07;;;-40.00;91.40;;;;;;4997840;28;20169;-71
2022/08/01 09:39:30;;;;;;;1.03;1.03;;;-40.00;91.00;;;;;;4997866;28;20185;-71
2022/08/01 09:41:58;;;;;;;3.83;2.03;;;-40.00;91.50;;;;;;4997797;28;20166;-71
2022/08/01 09:44:41;;;;;;;1.53;1.43;;;-40.00;91.30;;;;;;4997765;28;20247;-70
2022/08/01 09:47:07;;;;;;;2.17;1.43;;;-40.00;90.70;;;;;;4997402;28;20201;-71
2022/08/01 09:49:35;;;;;;;2.63;1.63;;;-40.00;90.90;;;;;;4997692;28;20474;-72
2022/08/01 09:52:16;;;;;;;1.27;1.27;;;-40.00;91.70;;;;;;4997683;28;20166;-72
2022/08/01 09:54:50;;;;;;;1.40;1.30;;;-40.00;89.90;;;;;;4997510;28;20201;-72
2022/08/01 09:57:18;;;;;;;2.00;1.17;;;-40.00;91.10;;;;;;4997490;28;20185;-72
2022/08/01 09:59:50;;;;;;;1.90;1.30;;;-40.00;90.60;;;;;;5012915;28;20178;-71
2022/08/01 10:02:38;;;;;;;1.83;1.37;;;-40.00;90.10;;;;;;4997118;28;20621;-71
2022/08/01 10:05:07;;;;;;;2.50;1.90;;;-40.00;89.70;;;;;;4997571;28;20194;-72
2022/08/01 10:07:33;;;;;;;1.57;1.53;;;-40.00;90.00;;;;;;4997369;28;20170;-73
2022/08/01 10:10:14;;;;;;;2.47;1.30;;;-40.00;89.40;;;;;;4997434;28;20570;-73
2022/08/01 10:12:42;;;;;;;2.07;1.90;;;-40.00;88.70;;;;;;4997104;28;20166;-71
2022/08/01 10:15:09;;;;;;;2.10;1.60;;;-40.00;89.80;;;;;;5012234;28;20535;-71
2022/08/01 10:17:38;;;;;;;1.80;1.70;;;-40.00;89.80;;;;;;4996901;28;20198;-71
2022/08/01 10:20:05;;;;;;;2.93;1.67;;;-40.00;86.70;;;;;;4997230;28;20216;-70
2022/08/01 10:22:34;;;;;;;2.60;2.50;;;-40.00;86.70;;;;;;4997015;28;20170;-72
2022/08/01 10:25:03;;;;;;;1.63;1.43;;;-40.00;86.70;;;;;;4995863;28;20166;-71
2022/08/01 10:27:35;;;;;;;2.60;1.10;;;-40.00;84.10;;;;;;4997029;28;20178;-70
2022/08/01 10:30:07;;;;;;;1.00;1.00;;;-40.00;83.30;;;;;;4996731;28;20167;-70
2022/08/01 10:32:35;;;;;;;2.00;1.90;;;-40.00;79.70;;;;;;4996848;28;20168;-71
2022/08/01 10:35:01;;;;;;;1.57;1.23;;;-40.00;81.10;;;;;;5012237;28;20269;-70
2022/08/01 10:37:29;;;;;;;1.20;1.20;;;-40.00;76.70;;;;;;4996789;28;20204;-71
2022/08/01 10:39:55;;;;;;;3.07;0.87;;;-40.00;76.20;;;;;;4996854;28;20574;-73
2022/08/01 10:42:21;;;;;;;1.03;0.93;;;-40.00;76.10;;;;;;5012220;28;20163;-71
2022/08/01 10:44:49;;;;;;;0.90;0.90;;;-40.00;78.20;;;;;;5011998;28;20265;-71
2022/08/01 10:47:23;;;;;;;2.03;1.13;;;-40.00;80.20;;;;;;4996668;28;20177;-71
2022/08/01 10:49:58;;;;;;;3.27;1.13;;;-40.00;81.80;;;;;;4996778;28;20174;-69
2022/08/01 10:52:24;;;;;;;1.07;1.07;;;-40.00;77.50;;;;;;4996670;28;20174;-71
2022/08/01 10:55:04;;;;;;;0.87;0.87;;;-40.00;76.60;;;;;;4996513;28;20178;-71
2022/08/01 10:57:44;;;;;;;1.60;1.33;;;-40.00;79.80;;;;;;5011927;28;20341;-70
2022/08/01 11:00:18;;;;;;;1.03;0.97;;;-40.00;78.80;;;;;;4996372;28;20578;-71
2022/08/01 11:03:01;;;;;;;1.33;1.23;;;-40.00;78.30;;;;;;5011823;28;20178;-70
2022/08/01 11:05:31;;;;;;;1.47;1.07;;;-40.00;76.60;;;;;;5011855;28;20169;-71
2022/08/01 11:08:01;;;;;;;2.57;1.33;;;-40.00;75.20;;;;;;4996256;28;20481;-70
2022/08/01 11:10:38;;;;;;;2.67;0.80;;;-40.00;76.90;;;;;;4996513;28;20190;-71
2022/08/01 11:13:07;;;;;;;1.27;1.17;;;-40.00;75.10;;;;;;4996154;28;20169;-70
2022/08/01 11:15:33;;;;;;;2.57;0.90;;;-40.00;75.20;;;;;;4996300;28;20252;-72
2022/08/01 11:18:01;;;;;;;1.90;1.70;;;-40.00;74.00;;;;;;4996120;28;20205;-70
2022/08/01 11:20:35;;;;;;;1.90;0.60;;;-40.00;72.00;;;;;;4996478;28;20597;-72
2022/08/01 11:23:01;;;;;;;1.47;0.77;;;-40.00;69.30;;;;;;4996196;28;20241;-70
2022/08/01 11:25:36;;;;;;;0.60;0.60;;;-40.00;72.50;;;;;;4996401;28;20194;-71
2022/08/01 11:28:23;;;;;;;0.80;0.70;;;-40.00;70.80;;;;;;4995959;28;20589;-72
2022/08/01 11:31:14;;;;;;;5.40;1.43;;;-40.00;71.70;;;;;;4996326;28;20200;-71
2022/08/01 11:33:41;;;;;;;1.00;1.00;;;-40.00;68.10;;;;;;4995957;28;20170;-71
2022/08/01 11:36:12;;;;;;;1.43;1.33;;;-40.00;68.80;;;;;;4997414;28;20253;-73
2022/08/01 11:38:48;;;;;;;1.63;1.53;;;-40.00;65.10;;;;;;5000146;28;20284;-71
2022/08/01 11:41:23;;;;;;;0.80;0.80;;;-40.00;64.40;;;;;;5000304;28;20172;-70
2022/08/01 11:44:09;;;;;;;1.27;1.20;;;-40.00;66.30;;;;;;5014762;28;20178;-71
2022/08/01 11:46:51;;;;;;;1.00;0.80;;;-40.00;63.20;;;;;;5000155;28;20166;-71
2022/08/01 11:49:36;;;;;;;1.53;1.13;;;-40.00;63.60;;;;;;5000075;28;20225;-70
2022/08/01 11:52:23;;;;;;;2.00;1.60;;;-40.00;64.00;;;;;;4999926;28;20253;-72
2022/08/01 11:54:52;;;;;;;0.90;0.90;;;-40.00;65.60;;;;;;4999691;28;20259;-71
2022/08/01 11:57:26;;;;;;;0.80;0.80;;;-40.00;62.80;;;;;;4999627;28;20190;-70
2022/08/01 11:59:55;;;;;;;0.80;0.60;;;-40.00;59.10;;;;;;4999784;28;20172;-71
2022/08/01 12:02:33;;;;;;;2.43;0.70;;;-40.00;60.50;;;;;;4999938;28;20257;-71
2022/08/01 12:05:04;;;;;;;0.57;0.57;;;-40.00;60.90;;;;;;4999570;28;20166;-71
2022/08/01 12:07:32;;;;;;;0.77;0.77;;;-40.00;55.70;;;;;;4999680;28;20178;-72
2022/08/01 12:10:04;;;;;;;2.70;0.90;;;-40.00;55.40;;;;;;4999541;28;20454;-71
2022/08/01 12:12:31;;;;;;;0.87;0.80;;;-40.00;58.30;;;;;;5014618;28;20225;-70
2022/08/01 12:14:59;;;;;;;0.70;0.60;;;-40.00;58.60;;;;;;4999176;28;20194;-72
2022/08/01 12:17:29;;;;;;;0.40;0.40;;;-40.00;58.30;;;;;;4999322;28;20292;-71
2022/08/01 12:19:55;;;;;;;0.60;0.60;;;-40.00;58.70;;;;;;5014584;28;20179;-70
2022/08/01 12:22:23;;;;;;;2.00;0.60;;;-40.00;55.30;;;;;;4999367;28;20176;-70
2022/08/01 12:24:49;;;;;;;0.50;0.40;;;-40.00;56.10;;;;;;4999213;28;20194;-71
2022/08/01 12:27:28;;;;;;;1.33;0.60;;;-40.00;53.10;;;;;;4999080;28;20193;-72
2022/08/01 12:29:56;;;;;;;0.93;0.87;;;-40.00;53.60;;;;;;4999135;28;20241;-70
2022/08/01 12:32:32;;;;;;;1.75;1.15;;;-24.60;59.20;;;;;;5014494;28;20605;-72
2022/08/01 12:35:04;;;;;;;0.60;0.55;;;-30.60;57.40;;;;;;5014215;28;20540;-71
2022/08/01 12:37:32;;;;;;;1.17;0.80;;;-27.40;55.80;;;;;;4999351;28;20213;-71
2022/08/01 12:39:58;;;;;;;0.75;0.75;;;-30.20;57.30;;;;;;5014520;28;20462;-71
2022/08/01 12:42:25;;;;;;;0.57;0.57;;;-22.90;59.00;;;;;;4999597;28;20478;-70
2022/08/01 12:44:52;;;;;;;1.53;0.77;;;-16.80;63.50;;;;;;5014708;28;20177;-71
2022/08/01 12:47:20;;;;;;;1.60;0.95;;;-16.30;65.00;;;;;;5000810;28;20233;-71
2022/08/01 12:49:46;;;;;;;0.77;0.77;;;-13.20;68.60;;;;;;5004463;28;20166;-72